sensor_id;sensor_type;location;lat;lon;timestamp;P1;durP1;ratioP1;P2;durP2;ratioP2
69534;SDS011;56754;51.568;5.048;2022-10-16T00:01:39;5.93;;;2.30;;
69534;SDS011;56754;51.568;5.048;2022-10-16T00:04:04;6.83;;;2.50;;
69534;SDS011;56754;51.568;5.048;2022-10-16T00:06:30;5.17;;;2.20;;
69534;SDS011;56754;51.568;5.048;2022-10-16T00:08:56;5.68;;;2.47;;
69534;SDS011;56754;51.568;5.048;2022-10-16T00:11:22;5.90;;;2.33;;
69534;SDS011;56754;51.568;5.048;2022-10-16T00:13:50;6.30;;;2.28;;
69534;SDS011;56754;51.568;5.048;2022-10-16T00:16:19;6.55;;;2.30;;
69534;SDS011;56754;51.568;5.048;2022-10-16T00:18:44;6.43;;;2.13;;
69534;SDS011;56754;51.568;5.048;2022-10-16T00:21:11;5.80;;;2.10;;
69534;SDS011;56754;51.568;5.048;2022-10-16T00:23:43;5.28;;;2.22;;
69534;SDS011;56754;51.568;5.048;2022-10-16T00:26:10;5.80;;;2.10;;
69534;SDS011;56754;51.568;5.048;2022-10-16T00:28:40;5.50;;;2.22;;
69534;SDS011;56754;51.568;5.048;2022-10-16T00:31:06;5.60;;;2.20;;
69534;SDS011;56754;51.568;5.048;2022-10-16T00:33:34;5.22;;;1.92;;
69534;SDS011;56754;51.568;5.048;2022-10-16T00:36:01;4.47;;;1.98;;
69534;SDS011;56754;51.568;5.048;2022-10-16T00:38:27;5.68;;;2.00;;
69534;SDS011;56754;51.568;5.048;2022-10-16T00:40:53;6.27;;;2.20;;
69534;SDS011;56754;51.568;5.048;2022-10-16T00:45:59;4.82;;;1.88;;
69534;SDS011;56754;51.568;5.048;2022-10-16T00:48:26;4.87;;;1.77;;
69534;SDS011;56754;51.568;5.048;2022-10-16T00:50:52;5.72;;;2.00;;
69534;SDS011;56754;51.568;5.048;2022-10-16T00:53:18;4.22;;;1.85;;
69534;SDS011;56754;51.568;5.048;2022-10-16T00:55:44;5.57;;;2.00;;
69534;SDS011;56754;51.568;5.048;2022-10-16T00:58:09;5.17;;;2.10;;
69534;SDS011;56754;51.568;5.048;2022-10-16T01:00:35;5.47;;;1.88;;
69534;SDS011;56754;51.568;5.048;2022-10-16T01:03:02;5.23;;;2.00;;
69534;SDS011;56754;51.568;5.048;2022-10-16T01:05:39;4.70;;;1.60;;
69534;SDS011;56754;51.568;5.048;2022-10-16T01:10:52;4.72;;;1.63;;
69534;SDS011;56754;51.568;5.048;2022-10-16T01:13:27;4.95;;;1.67;;
69534;SDS011;56754;51.568;5.048;2022-10-16T01:21:40;4.78;;;1.70;;
69534;SDS011;56754;51.568;5.048;2022-10-16T01:24:14;4.70;;;1.67;;
69534;SDS011;56754;51.568;5.048;2022-10-16T01:32:01;10.07;;;1.70;;
69534;SDS011;56754;51.568;5.048;2022-10-16T01:34:36;4.50;;;1.63;;
69534;SDS011;56754;51.568;5.048;2022-10-16T01:37:12;4.28;;;1.60;;
69534;SDS011;56754;51.568;5.048;2022-10-16T01:39:41;4.53;;;1.65;;
69534;SDS011;56754;51.568;5.048;2022-10-16T01:44:42;4.15;;;1.50;;
69534;SDS011;56754;51.568;5.048;2022-10-16T01:47:10;3.33;;;1.20;;
69534;SDS011;56754;51.568;5.048;2022-10-16T01:49:38;4.40;;;1.40;;
69534;SDS011;56754;51.568;5.048;2022-10-16T01:52:06;4.07;;;1.50;;
69534;SDS011;56754;51.568;5.048;2022-10-16T01:54:35;3.72;;;1.60;;
69534;SDS011;56754;51.568;5.048;2022-10-16T01:57:03;4.15;;;1.58;;
69534;SDS011;56754;51.568;5.048;2022-10-16T01:59:31;3.83;;;1.50;;
69534;SDS011;56754;51.568;5.048;2022-10-16T02:02:01;4.05;;;1.55;;
69534;SDS011;56754;51.568;5.048;2022-10-16T02:04:32;4.43;;;1.58;;
69534;SDS011;56754;51.568;5.048;2022-10-16T02:07:07;4.97;;;1.38;;
69534;SDS011;56754;51.568;5.048;2022-10-16T02:09:33;3.60;;;1.60;;
69534;SDS011;56754;51.568;5.048;2022-10-16T02:11:59;4.68;;;1.70;;
69534;SDS011;56754;51.568;5.048;2022-10-16T02:14:31;4.07;;;1.50;;
69534;SDS011;56754;51.568;5.048;2022-10-16T02:16:57;4.15;;;1.30;;
69534;SDS011;56754;51.568;5.048;2022-10-16T02:19:22;4.27;;;1.50;;
69534;SDS011;56754;51.568;5.048;2022-10-16T02:21:54;4.23;;;1.40;;
69534;SDS011;56754;51.568;5.048;2022-10-16T02:24:30;3.40;;;1.10;;
69534;SDS011;56754;51.568;5.048;2022-10-16T02:27:06;3.75;;;1.50;;
69534;SDS011;56754;51.568;5.048;2022-10-16T02:29:34;4.17;;;1.33;;
69534;SDS011;56754;51.568;5.048;2022-10-16T02:32:06;3.53;;;1.20;;
69534;SDS011;56754;51.568;5.048;2022-10-16T02:34:33;4.00;;;1.38;;
69534;SDS011;56754;51.568;5.048;2022-10-16T02:36:59;5.00;;;1.40;;
69534;SDS011;56754;51.568;5.048;2022-10-16T02:39:27;3.50;;;1.30;;
69534;SDS011;56754;51.568;5.048;2022-10-16T02:41:54;3.93;;;1.30;;
69534;SDS011;56754;51.568;5.048;2022-10-16T02:44:19;3.60;;;1.30;;
69534;SDS011;56754;51.568;5.048;2022-10-16T02:46:45;4.30;;;1.40;;
69534;SDS011;56754;51.568;5.048;2022-10-16T02:49:10;3.40;;;1.13;;
69534;SDS011;56754;51.568;5.048;2022-10-16T02:51:35;3.30;;;1.20;;
69534;SDS011;56754;51.568;5.048;2022-10-16T02:54:01;3.40;;;1.03;;
69534;SDS011;56754;51.568;5.048;2022-10-16T02:56:27;3.03;;;1.10;;
69534;SDS011;56754;51.568;5.048;2022-10-16T02:58:52;3.40;;;1.10;;
69534;SDS011;56754;51.568;5.048;2022-10-16T03:01:18;4.40;;;1.10;;
69534;SDS011;56754;51.568;5.048;2022-10-16T03:03:43;3.70;;;1.20;;
69534;SDS011;56754;51.568;5.048;2022-10-16T03:06:08;3.50;;;1.17;;
69534;SDS011;56754;51.568;5.048;2022-10-16T03:08:34;4.00;;;1.30;;
69534;SDS011;56754;51.568;5.048;2022-10-16T03:10:59;3.43;;;1.10;;
69534;SDS011;56754;51.568;5.048;2022-10-16T03:13:24;3.90;;;1.47;;
69534;SDS011;56754;51.568;5.048;2022-10-16T03:15:50;3.20;;;1.10;;
69534;SDS011;56754;51.568;5.048;2022-10-16T03:18:15;3.57;;;1.20;;
69534;SDS011;56754;51.568;5.048;2022-10-16T03:20:40;3.23;;;1.00;;
69534;SDS011;56754;51.568;5.048;2022-10-16T03:23:05;2.77;;;0.90;;
69534;SDS011;56754;51.568;5.048;2022-10-16T03:25:31;2.92;;;0.90;;
69534;SDS011;56754;51.568;5.048;2022-10-16T03:27:56;2.90;;;1.10;;
69534;SDS011;56754;51.568;5.048;2022-10-16T03:30:21;2.80;;;0.93;;
69534;SDS011;56754;51.568;5.048;2022-10-16T03:32:46;3.90;;;1.10;;
69534;SDS011;56754;51.568;5.048;2022-10-16T03:35:12;2.77;;;1.10;;
69534;SDS011;56754;51.568;5.048;2022-10-16T03:37:37;3.60;;;0.80;;
69534;SDS011;56754;51.568;5.048;2022-10-16T03:40:03;2.92;;;1.10;;
69534;SDS011;56754;51.568;5.048;2022-10-16T03:42:29;3.93;;;1.20;;
69534;SDS011;56754;51.568;5.048;2022-10-16T03:44:54;3.63;;;1.00;;
69534;SDS011;56754;51.568;5.048;2022-10-16T03:47:19;2.95;;;0.90;;
69534;SDS011;56754;51.568;5.048;2022-10-16T03:49:45;2.83;;;0.90;;
69534;SDS011;56754;51.568;5.048;2022-10-16T03:52:10;2.73;;;0.90;;
69534;SDS011;56754;51.568;5.048;2022-10-16T03:54:35;3.37;;;1.10;;
69534;SDS011;56754;51.568;5.048;2022-10-16T03:57:00;4.60;;;1.20;;
69534;SDS011;56754;51.568;5.048;2022-10-16T03:59:26;2.80;;;0.93;;
69534;SDS011;56754;51.568;5.048;2022-10-16T04:01:51;2.73;;;1.00;;
69534;SDS011;56754;51.568;5.048;2022-10-16T04:04:16;3.50;;;1.00;;
69534;SDS011;56754;51.568;5.048;2022-10-16T04:06:42;2.42;;;0.90;;
69534;SDS011;56754;51.568;5.048;2022-10-16T04:09:07;3.20;;;0.90;;
69534;SDS011;56754;51.568;5.048;2022-10-16T04:11:32;3.73;;;0.90;;
69534;SDS011;56754;51.568;5.048;2022-10-16T04:13:57;2.20;;;0.83;;
69534;SDS011;56754;51.568;5.048;2022-10-16T04:16:23;3.57;;;0.90;;
69534;SDS011;56754;51.568;5.048;2022-10-16T04:18:48;3.03;;;0.97;;
69534;SDS011;56754;51.568;5.048;2022-10-16T04:21:13;3.17;;;0.90;;
69534;SDS011;56754;51.568;5.048;2022-10-16T04:23:38;1.93;;;0.70;;
69534;SDS011;56754;51.568;5.048;2022-10-16T04:26:04;3.17;;;0.90;;
69534;SDS011;56754;51.568;5.048;2022-10-16T04:28:29;3.83;;;1.10;;
69534;SDS011;56754;51.568;5.048;2022-10-16T04:30:55;2.90;;;1.00;;
69534;SDS011;56754;51.568;5.048;2022-10-16T04:33:20;2.67;;;0.90;;
69534;SDS011;56754;51.568;5.048;2022-10-16T04:35:46;3.63;;;0.93;;
69534;SDS011;56754;51.568;5.048;2022-10-16T04:38:11;3.13;;;1.00;;
69534;SDS011;56754;51.568;5.048;2022-10-16T04:40:36;3.77;;;0.87;;
69534;SDS011;56754;51.568;5.048;2022-10-16T04:43:05;2.87;;;0.90;;
69534;SDS011;56754;51.568;5.048;2022-10-16T04:45:30;2.97;;;0.95;;
69534;SDS011;56754;51.568;5.048;2022-10-16T04:47:59;4.03;;;1.00;;
69534;SDS011;56754;51.568;5.048;2022-10-16T04:50:24;3.30;;;1.00;;
69534;SDS011;56754;51.568;5.048;2022-10-16T04:52:50;2.37;;;0.80;;
69534;SDS011;56754;51.568;5.048;2022-10-16T04:55:15;2.00;;;0.77;;
69534;SDS011;56754;51.568;5.048;2022-10-16T04:57:40;4.25;;;1.13;;
69534;SDS011;56754;51.568;5.048;2022-10-16T05:00:06;3.40;;;0.80;;
69534;SDS011;56754;51.568;5.048;2022-10-16T05:02:32;2.73;;;0.80;;
69534;SDS011;56754;51.568;5.048;2022-10-16T05:04:57;2.88;;;0.80;;
69534;SDS011;56754;51.568;5.048;2022-10-16T05:07:22;2.40;;;0.60;;
69534;SDS011;56754;51.568;5.048;2022-10-16T05:09:48;2.07;;;0.60;;
69534;SDS011;56754;51.568;5.048;2022-10-16T05:12:13;3.17;;;0.80;;
69534;SDS011;56754;51.568;5.048;2022-10-16T05:14:38;2.80;;;0.90;;
69534;SDS011;56754;51.568;5.048;2022-10-16T05:17:03;2.10;;;0.70;;
69534;SDS011;56754;51.568;5.048;2022-10-16T05:19:29;3.73;;;0.90;;
69534;SDS011;56754;51.568;5.048;2022-10-16T05:21:54;3.07;;;0.80;;
69534;SDS011;56754;51.568;5.048;2022-10-16T05:24:19;2.72;;;0.73;;
69534;SDS011;56754;51.568;5.048;2022-10-16T05:26:45;3.13;;;0.70;;
69534;SDS011;56754;51.568;5.048;2022-10-16T05:29:10;2.50;;;0.70;;
69534;SDS011;56754;51.568;5.048;2022-10-16T05:31:35;2.73;;;0.60;;
69534;SDS011;56754;51.568;5.048;2022-10-16T05:34:00;2.40;;;0.70;;
69534;SDS011;56754;51.568;5.048;2022-10-16T05:36:26;3.22;;;0.73;;
69534;SDS011;56754;51.568;5.048;2022-10-16T05:38:52;2.53;;;0.80;;
69534;SDS011;56754;51.568;5.048;2022-10-16T05:41:17;2.33;;;0.70;;
69534;SDS011;56754;51.568;5.048;2022-10-16T05:43:43;3.15;;;0.85;;
69534;SDS011;56754;51.568;5.048;2022-10-16T05:46:08;2.27;;;0.70;;
69534;SDS011;56754;51.568;5.048;2022-10-16T05:48:33;2.73;;;0.80;;
69534;SDS011;56754;51.568;5.048;2022-10-16T05:51:00;2.70;;;0.67;;
69534;SDS011;56754;51.568;5.048;2022-10-16T05:53:27;2.80;;;0.90;;
69534;SDS011;56754;51.568;5.048;2022-10-16T05:55:55;3.42;;;0.80;;
69534;SDS011;56754;51.568;5.048;2022-10-16T05:58:21;2.72;;;0.60;;
69534;SDS011;56754;51.568;5.048;2022-10-16T06:01:00;2.57;;;0.60;;
69534;SDS011;56754;51.568;5.048;2022-10-16T06:03:27;2.90;;;0.80;;
69534;SDS011;56754;51.568;5.048;2022-10-16T06:05:53;2.47;;;0.70;;
69534;SDS011;56754;51.568;5.048;2022-10-16T06:08:18;2.15;;;0.60;;
69534;SDS011;56754;51.568;5.048;2022-10-16T06:10:45;2.83;;;0.82;;
69534;SDS011;56754;51.568;5.048;2022-10-16T06:13:11;3.37;;;0.77;;
69534;SDS011;56754;51.568;5.048;2022-10-16T06:15:37;3.30;;;0.75;;
69534;SDS011;56754;51.568;5.048;2022-10-16T06:18:03;4.30;;;0.60;;
69534;SDS011;56754;51.568;5.048;2022-10-16T06:20:29;2.83;;;0.87;;
69534;SDS011;56754;51.568;5.048;2022-10-16T06:22:54;3.40;;;0.90;;
69534;SDS011;56754;51.568;5.048;2022-10-16T06:25:19;2.73;;;0.90;;
69534;SDS011;56754;51.568;5.048;2022-10-16T06:27:45;4.17;;;1.00;;
69534;SDS011;56754;51.568;5.048;2022-10-16T06:30:10;2.63;;;0.73;;
69534;SDS011;56754;51.568;5.048;2022-10-16T06:32:35;2.87;;;0.70;;
69534;SDS011;56754;51.568;5.048;2022-10-16T06:35:00;4.20;;;0.90;;
69534;SDS011;56754;51.568;5.048;2022-10-16T06:37:26;3.97;;;0.73;;
69534;SDS011;56754;51.568;5.048;2022-10-16T06:39:52;3.03;;;0.70;;
69534;SDS011;56754;51.568;5.048;2022-10-16T06:42:17;2.13;;;0.63;;
69534;SDS011;56754;51.568;5.048;2022-10-16T06:44:43;2.53;;;0.77;;
69534;SDS011;56754;51.568;5.048;2022-10-16T06:47:08;2.50;;;0.70;;
69534;SDS011;56754;51.568;5.048;2022-10-16T06:49:33;2.97;;;0.63;;
69534;SDS011;56754;51.568;5.048;2022-10-16T06:51:59;2.63;;;0.90;;
69534;SDS011;56754;51.568;5.048;2022-10-16T06:54:24;2.80;;;0.80;;
69534;SDS011;56754;51.568;5.048;2022-10-16T06:56:50;2.20;;;0.67;;
69534;SDS011;56754;51.568;5.048;2022-10-16T06:59:16;4.07;;;1.00;;
69534;SDS011;56754;51.568;5.048;2022-10-16T07:01:41;4.00;;;0.80;;
69534;SDS011;56754;51.568;5.048;2022-10-16T07:04:07;3.57;;;0.77;;
69534;SDS011;56754;51.568;5.048;2022-10-16T07:06:33;3.60;;;1.07;;
69534;SDS011;56754;51.568;5.048;2022-10-16T07:09:00;3.38;;;0.73;;
69534;SDS011;56754;51.568;5.048;2022-10-16T07:11:27;3.42;;;1.00;;
69534;SDS011;56754;51.568;5.048;2022-10-16T07:13:53;2.87;;;0.97;;
69534;SDS011;56754;51.568;5.048;2022-10-16T07:16:19;2.97;;;0.80;;
69534;SDS011;56754;51.568;5.048;2022-10-16T07:18:46;3.00;;;0.70;;
69534;SDS011;56754;51.568;5.048;2022-10-16T07:21:13;3.60;;;0.73;;
69534;SDS011;56754;51.568;5.048;2022-10-16T07:23:40;3.43;;;0.93;;
69534;SDS011;56754;51.568;5.048;2022-10-16T07:26:06;2.85;;;0.80;;
69534;SDS011;56754;51.568;5.048;2022-10-16T07:28:32;2.50;;;0.60;;
69534;SDS011;56754;51.568;5.048;2022-10-16T07:31:05;3.60;;;1.00;;
69534;SDS011;56754;51.568;5.048;2022-10-16T07:33:33;1.85;;;0.70;;
69534;SDS011;56754;51.568;5.048;2022-10-16T07:35:59;3.80;;;0.73;;
69534;SDS011;56754;51.568;5.048;2022-10-16T07:38:25;2.70;;;0.70;;
69534;SDS011;56754;51.568;5.048;2022-10-16T07:40:57;2.60;;;0.90;;
69534;SDS011;56754;51.568;5.048;2022-10-16T07:43:23;3.22;;;0.70;;
69534;SDS011;56754;51.568;5.048;2022-10-16T07:45:48;2.63;;;0.67;;
69534;SDS011;56754;51.568;5.048;2022-10-16T07:48:15;2.10;;;0.70;;
69534;SDS011;56754;51.568;5.048;2022-10-16T07:50:40;1.77;;;0.50;;
69534;SDS011;56754;51.568;5.048;2022-10-16T07:53:06;4.30;;;0.70;;
69534;SDS011;56754;51.568;5.048;2022-10-16T07:55:31;2.60;;;0.80;;
69534;SDS011;56754;51.568;5.048;2022-10-16T07:57:56;2.30;;;0.80;;
69534;SDS011;56754;51.568;5.048;2022-10-16T08:00:22;2.83;;;0.90;;
69534;SDS011;56754;51.568;5.048;2022-10-16T08:02:47;3.00;;;0.93;;
69534;SDS011;56754;51.568;5.048;2022-10-16T08:05:12;2.53;;;0.60;;
69534;SDS011;56754;51.568;5.048;2022-10-16T08:07:38;2.50;;;0.70;;
69534;SDS011;56754;51.568;5.048;2022-10-16T08:10:03;2.73;;;0.80;;
69534;SDS011;56754;51.568;5.048;2022-10-16T08:12:29;2.55;;;0.63;;
69534;SDS011;56754;51.568;5.048;2022-10-16T08:14:54;2.60;;;0.87;;
69534;SDS011;56754;51.568;5.048;2022-10-16T08:17:19;3.10;;;0.80;;
69534;SDS011;56754;51.568;5.048;2022-10-16T08:19:45;3.03;;;0.87;;
69534;SDS011;56754;51.568;5.048;2022-10-16T08:22:11;2.58;;;0.80;;
69534;SDS011;56754;51.568;5.048;2022-10-16T08:24:36;2.40;;;0.73;;
69534;SDS011;56754;51.568;5.048;2022-10-16T08:27:02;4.83;;;1.00;;
69534;SDS011;56754;51.568;5.048;2022-10-16T08:29:27;3.13;;;0.83;;
69534;SDS011;56754;51.568;5.048;2022-10-16T08:31:53;2.70;;;0.70;;
69534;SDS011;56754;51.568;5.048;2022-10-16T08:34:18;2.73;;;0.67;;
69534;SDS011;56754;51.568;5.048;2022-10-16T08:36:44;2.60;;;0.82;;
69534;SDS011;56754;51.568;5.048;2022-10-16T08:39:09;2.83;;;0.80;;
69534;SDS011;56754;51.568;5.048;2022-10-16T08:41:45;2.50;;;0.70;;
69534;SDS011;56754;51.568;5.048;2022-10-16T08:50:21;3.67;;;0.70;;
69534;SDS011;56754;51.568;5.048;2022-10-16T08:52:48;4.45;;;0.80;;
69534;SDS011;56754;51.568;5.048;2022-10-16T08:55:37;4.82;;;1.17;;
69534;SDS011;56754;51.568;5.048;2022-10-16T08:58:11;3.55;;;0.93;;
69534;SDS011;56754;51.568;5.048;2022-10-16T09:00:51;4.23;;;1.03;;
69534;SDS011;56754;51.568;5.048;2022-10-16T09:25:28;4.53;;;0.97;;
69534;SDS011;56754;51.568;5.048;2022-10-16T09:27:53;4.47;;;0.80;;
69534;SDS011;56754;51.568;5.048;2022-10-16T09:30:20;5.32;;;0.93;;
69534;SDS011;56754;51.568;5.048;2022-10-16T09:32:47;5.10;;;0.93;;
69534;SDS011;56754;51.568;5.048;2022-10-16T09:35:17;4.43;;;1.10;;
69534;SDS011;56754;51.568;5.048;2022-10-16T09:38:04;5.25;;;1.10;;
69534;SDS011;56754;51.568;5.048;2022-10-16T09:40:32;5.00;;;1.00;;
69534;SDS011;56754;51.568;5.048;2022-10-16T09:43:03;4.97;;;0.90;;
69534;SDS011;56754;51.568;5.048;2022-10-16T09:46:08;6.20;;;1.00;;
69534;SDS011;56754;51.568;5.048;2022-10-16T09:48:48;5.47;;;0.98;;
69534;SDS011;56754;51.568;5.048;2022-10-16T09:51:25;4.15;;;1.02;;
69534;SDS011;56754;51.568;5.048;2022-10-16T09:56:33;6.45;;;1.00;;
69534;SDS011;56754;51.568;5.048;2022-10-16T09:59:01;6.07;;;1.10;;
69534;SDS011;56754;51.568;5.048;2022-10-16T10:01:40;5.60;;;0.70;;
69534;SDS011;56754;51.568;5.048;2022-10-16T10:04:09;6.38;;;1.83;;
69534;SDS011;56754;51.568;5.048;2022-10-16T10:06:36;6.27;;;0.90;;
69534;SDS011;56754;51.568;5.048;2022-10-16T10:17:25;5.88;;;1.20;;
69534;SDS011;56754;51.568;5.048;2022-10-16T10:19:52;5.40;;;0.97;;
69534;SDS011;56754;51.568;5.048;2022-10-16T10:22:29;7.95;;;1.40;;
69534;SDS011;56754;51.568;5.048;2022-10-16T10:35:44;7.22;;;0.80;;
69534;SDS011;56754;51.568;5.048;2022-10-16T10:46:41;7.10;;;0.90;;
69534;SDS011;56754;51.568;5.048;2022-10-16T10:49:29;7.43;;;1.20;;
69534;SDS011;56754;51.568;5.048;2022-10-16T10:54:41;7.15;;;1.30;;
69534;SDS011;56754;51.568;5.048;2022-10-16T10:57:10;7.22;;;1.00;;
69534;SDS011;56754;51.568;5.048;2022-10-16T11:00:05;5.70;;;0.80;;
69534;SDS011;56754;51.568;5.048;2022-10-16T11:02:46;6.10;;;1.30;;
69534;SDS011;56754;51.568;5.048;2022-10-16T11:05:28;6.13;;;1.20;;
69534;SDS011;56754;51.568;5.048;2022-10-16T11:08:00;5.82;;;1.00;;
69534;SDS011;56754;51.568;5.048;2022-10-16T11:18:48;5.37;;;0.83;;
69534;SDS011;56754;51.568;5.048;2022-10-16T11:21:20;5.82;;;1.02;;
69534;SDS011;56754;51.568;5.048;2022-10-16T11:23:57;7.30;;;1.10;;
69534;SDS011;56754;51.568;5.048;2022-10-16T11:26:30;7.15;;;1.33;;
69534;SDS011;56754;51.568;5.048;2022-10-16T11:28:59;11.13;;;1.17;;
69534;SDS011;56754;51.568;5.048;2022-10-16T11:31:30;4.38;;;0.68;;
69534;SDS011;56754;51.568;5.048;2022-10-16T11:37:41;4.65;;;0.80;;
69534;SDS011;56754;51.568;5.048;2022-10-16T11:40:10;4.38;;;0.95;;
69534;SDS011;56754;51.568;5.048;2022-10-16T11:42:48;6.40;;;1.00;;
69534;SDS011;56754;51.568;5.048;2022-10-16T11:50:57;4.15;;;0.60;;
69534;SDS011;56754;51.568;5.048;2022-10-16T11:53:53;4.07;;;0.63;;
69534;SDS011;56754;51.568;5.048;2022-10-16T11:56:26;4.30;;;0.63;;
69534;SDS011;56754;51.568;5.048;2022-10-16T11:58:56;5.32;;;0.80;;
69534;SDS011;56754;51.568;5.048;2022-10-16T12:01:31;5.28;;;0.85;;
69534;SDS011;56754;51.568;5.048;2022-10-16T12:07:02;4.60;;;0.60;;
69534;SDS011;56754;51.568;5.048;2022-10-16T12:09:31;4.33;;;0.70;;
69534;SDS011;56754;51.568;5.048;2022-10-16T12:11:59;3.55;;;0.77;;
69534;SDS011;56754;51.568;5.048;2022-10-16T12:19:18;3.83;;;0.93;;
69534;SDS011;56754;51.568;5.048;2022-10-16T12:21:45;4.57;;;0.68;;
69534;SDS011;56754;51.568;5.048;2022-10-16T12:24:19;4.13;;;0.80;;
69534;SDS011;56754;51.568;5.048;2022-10-16T12:26:56;4.68;;;0.90;;
69534;SDS011;56754;51.568;5.048;2022-10-16T12:32:04;3.75;;;0.77;;
69534;SDS011;56754;51.568;5.048;2022-10-16T12:34:44;4.10;;;0.80;;
69534;SDS011;56754;51.568;5.048;2022-10-16T12:37:11;3.63;;;0.80;;
69534;SDS011;56754;51.568;5.048;2022-10-16T12:39:38;2.70;;;0.60;;
69534;SDS011;56754;51.568;5.048;2022-10-16T12:42:04;3.13;;;0.60;;
69534;SDS011;56754;51.568;5.048;2022-10-16T12:44:32;4.20;;;0.80;;
69534;SDS011;56754;51.568;5.048;2022-10-16T12:47:00;3.25;;;0.73;;
69534;SDS011;56754;51.568;5.048;2022-10-16T12:49:37;3.63;;;0.63;;
69534;SDS011;56754;51.568;5.048;2022-10-16T12:52:03;4.07;;;0.80;;
69534;SDS011;56754;51.568;5.048;2022-10-16T12:54:31;4.55;;;0.60;;
69534;SDS011;56754;51.568;5.048;2022-10-16T13:17:01;3.75;;;0.70;;
69534;SDS011;56754;51.568;5.048;2022-10-16T13:19:38;3.10;;;0.60;;
69534;SDS011;56754;51.568;5.048;2022-10-16T13:27:54;2.47;;;0.53;;
69534;SDS011;56754;51.568;5.048;2022-10-16T13:30:38;2.38;;;0.50;;
69534;SDS011;56754;51.568;5.048;2022-10-16T13:33:07;3.58;;;0.68;;
69534;SDS011;56754;51.568;5.048;2022-10-16T13:35:46;3.03;;;0.57;;
69534;SDS011;56754;51.568;5.048;2022-10-16T13:38:15;4.05;;;0.70;;
69534;SDS011;56754;51.568;5.048;2022-10-16T13:40:50;3.03;;;0.63;;
69534;SDS011;56754;51.568;5.048;2022-10-16T13:43:18;1.77;;;0.47;;
69534;SDS011;56754;51.568;5.048;2022-10-16T13:45:54;2.92;;;0.60;;
69534;SDS011;56754;51.568;5.048;2022-10-16T13:48:27;2.65;;;0.70;;
69534;SDS011;56754;51.568;5.048;2022-10-16T13:53:42;2.13;;;0.60;;
69534;SDS011;56754;51.568;5.048;2022-10-16T13:56:12;2.75;;;0.60;;
69534;SDS011;56754;51.568;5.048;2022-10-16T13:58:42;5.88;;;0.80;;
69534;SDS011;56754;51.568;5.048;2022-10-16T14:01:19;2.65;;;0.55;;
69534;SDS011;56754;51.568;5.048;2022-10-16T14:03:48;3.95;;;0.85;;
69534;SDS011;56754;51.568;5.048;2022-10-16T14:06:15;2.43;;;0.50;;
69534;SDS011;56754;51.568;5.048;2022-10-16T14:08:44;3.53;;;0.80;;
69534;SDS011;56754;51.568;5.048;2022-10-16T14:11:11;4.45;;;0.73;;
69534;SDS011;56754;51.568;5.048;2022-10-16T14:13:38;3.08;;;0.60;;
69534;SDS011;56754;51.568;5.048;2022-10-16T14:16:09;3.53;;;0.60;;
69534;SDS011;56754;51.568;5.048;2022-10-16T14:18:36;2.33;;;0.40;;
69534;SDS011;56754;51.568;5.048;2022-10-16T14:21:06;3.00;;;0.60;;
69534;SDS011;56754;51.568;5.048;2022-10-16T14:23:40;4.30;;;0.70;;
69534;SDS011;56754;51.568;5.048;2022-10-16T14:28:35;3.00;;;0.60;;
69534;SDS011;56754;51.568;5.048;2022-10-16T14:31:02;2.97;;;0.70;;
69534;SDS011;56754;51.568;5.048;2022-10-16T14:33:44;1.98;;;0.50;;
69534;SDS011;56754;51.568;5.048;2022-10-16T14:38:35;1.97;;;0.50;;
69534;SDS011;56754;51.568;5.048;2022-10-16T14:41:02;3.13;;;0.60;;
69534;SDS011;56754;51.568;5.048;2022-10-16T14:45:58;2.67;;;0.40;;
69534;SDS011;56754;51.568;5.048;2022-10-16T14:48:23;3.13;;;0.70;;
69534;SDS011;56754;51.568;5.048;2022-10-16T14:50:49;2.58;;;0.60;;
69534;SDS011;56754;51.568;5.048;2022-10-16T14:53:14;3.43;;;0.70;;
69534;SDS011;56754;51.568;5.048;2022-10-16T14:55:40;2.70;;;0.60;;
69534;SDS011;56754;51.568;5.048;2022-10-16T14:58:09;2.30;;;0.68;;
69534;SDS011;56754;51.568;5.048;2022-10-16T15:00:40;3.63;;;0.75;;
69534;SDS011;56754;51.568;5.048;2022-10-16T15:03:05;2.20;;;0.47;;
69534;SDS011;56754;51.568;5.048;2022-10-16T15:05:31;2.70;;;0.63;;
69534;SDS011;56754;51.568;5.048;2022-10-16T15:07:56;3.37;;;0.63;;
69534;SDS011;56754;51.568;5.048;2022-10-16T15:10:22;2.93;;;0.57;;
69534;SDS011;56754;51.568;5.048;2022-10-16T15:12:49;2.42;;;0.65;;
69534;SDS011;56754;51.568;5.048;2022-10-16T15:15:21;3.60;;;0.60;;
69534;SDS011;56754;51.568;5.048;2022-10-16T15:17:52;1.80;;;0.50;;
69534;SDS011;56754;51.568;5.048;2022-10-16T15:20:21;3.50;;;0.68;;
69534;SDS011;56754;51.568;5.048;2022-10-16T15:22:47;3.17;;;0.50;;
69534;SDS011;56754;51.568;5.048;2022-10-16T15:25:24;4.43;;;0.60;;
69534;SDS011;56754;51.568;5.048;2022-10-16T15:27:51;2.17;;;0.55;;
69534;SDS011;56754;51.568;5.048;2022-10-16T15:30:16;4.17;;;0.50;;
69534;SDS011;56754;51.568;5.048;2022-10-16T15:32:41;1.97;;;0.40;;
69534;SDS011;56754;51.568;5.048;2022-10-16T15:35:09;3.50;;;0.70;;
69534;SDS011;56754;51.568;5.048;2022-10-16T15:37:35;2.78;;;0.73;;
69534;SDS011;56754;51.568;5.048;2022-10-16T15:40:00;2.50;;;0.40;;
69534;SDS011;56754;51.568;5.048;2022-10-16T15:42:25;2.30;;;0.60;;
69534;SDS011;56754;51.568;5.048;2022-10-16T15:44:50;2.40;;;0.50;;
69534;SDS011;56754;51.568;5.048;2022-10-16T15:47:16;2.63;;;0.50;;
69534;SDS011;56754;51.568;5.048;2022-10-16T15:49:41;2.10;;;0.50;;
69534;SDS011;56754;51.568;5.048;2022-10-16T15:52:06;2.23;;;0.50;;
69534;SDS011;56754;51.568;5.048;2022-10-16T15:54:32;2.60;;;0.40;;
69534;SDS011;56754;51.568;5.048;2022-10-16T15:56:57;3.00;;;0.40;;
69534;SDS011;56754;51.568;5.048;2022-10-16T15:59:22;3.17;;;0.80;;
69534;SDS011;56754;51.568;5.048;2022-10-16T16:01:47;2.53;;;0.60;;
69534;SDS011;56754;51.568;5.048;2022-10-16T16:04:13;3.07;;;0.50;;
69534;SDS011;56754;51.568;5.048;2022-10-16T16:06:38;2.33;;;0.50;;
69534;SDS011;56754;51.568;5.048;2022-10-16T16:09:03;1.93;;;0.40;;
69534;SDS011;56754;51.568;5.048;2022-10-16T16:11:28;2.37;;;0.50;;
69534;SDS011;56754;51.568;5.048;2022-10-16T16:13:54;2.40;;;0.53;;
69534;SDS011;56754;51.568;5.048;2022-10-16T16:16:19;3.27;;;0.63;;
69534;SDS011;56754;51.568;5.048;2022-10-16T16:18:44;2.00;;;0.60;;
69534;SDS011;56754;51.568;5.048;2022-10-16T16:21:10;1.15;;;0.32;;
69534;SDS011;56754;51.568;5.048;2022-10-16T16:23:36;2.87;;;0.60;;
69534;SDS011;56754;51.568;5.048;2022-10-16T16:26:12;2.23;;;0.50;;
69534;SDS011;56754;51.568;5.048;2022-10-16T16:28:39;2.78;;;0.60;;
69534;SDS011;56754;51.568;5.048;2022-10-16T16:31:06;2.40;;;0.70;;
69534;SDS011;56754;51.568;5.048;2022-10-16T16:33:31;2.42;;;0.50;;
69534;SDS011;56754;51.568;5.048;2022-10-16T16:35:58;2.30;;;0.40;;
69534;SDS011;56754;51.568;5.048;2022-10-16T16:38:24;2.95;;;0.50;;
69534;SDS011;56754;51.568;5.048;2022-10-16T16:40:49;2.50;;;0.50;;
69534;SDS011;56754;51.568;5.048;2022-10-16T16:43:15;3.50;;;0.57;;
69534;SDS011;56754;51.568;5.048;2022-10-16T16:45:40;3.33;;;0.70;;
69534;SDS011;56754;51.568;5.048;2022-10-16T16:48:05;3.77;;;0.60;;
69534;SDS011;56754;51.568;5.048;2022-10-16T16:50:34;2.07;;;0.40;;
69534;SDS011;56754;51.568;5.048;2022-10-16T16:53:00;3.10;;;0.70;;
69534;SDS011;56754;51.568;5.048;2022-10-16T16:55:26;2.27;;;0.40;;
69534;SDS011;56754;51.568;5.048;2022-10-16T16:57:51;4.70;;;0.73;;
69534;SDS011;56754;51.568;5.048;2022-10-16T17:00:16;3.93;;;0.70;;
69534;SDS011;56754;51.568;5.048;2022-10-16T17:02:41;2.63;;;0.67;;
69534;SDS011;56754;51.568;5.048;2022-10-16T17:05:07;2.97;;;0.60;;
69534;SDS011;56754;51.568;5.048;2022-10-16T17:07:32;2.70;;;0.57;;
69534;SDS011;56754;51.568;5.048;2022-10-16T17:09:58;2.93;;;0.60;;
69534;SDS011;56754;51.568;5.048;2022-10-16T17:12:23;2.77;;;0.70;;
69534;SDS011;56754;51.568;5.048;2022-10-16T17:14:49;2.97;;;0.60;;
69534;SDS011;56754;51.568;5.048;2022-10-16T17:17:15;2.67;;;0.70;;